sensor_id;sensor_type;location;lat;lon;timestamp;P1;durP1;ratioP1;P2;durP2;ratioP2
80694;SDS011;70059;42.702;23.312;2023-06-19T00:00:11;8.60;;;7.80;;
80694;SDS011;70059;42.702;23.312;2023-06-19T00:02:39;11.82;;;10.80;;
80694;SDS011;70059;42.702;23.312;2023-06-19T00:05:05;10.90;;;9.80;;
80694;SDS011;70059;42.702;23.312;2023-06-19T00:07:32;12.20;;;11.20;;
80694;SDS011;70059;42.702;23.312;2023-06-19T00:10:01;10.77;;;9.77;;
80694;SDS011;70059;42.702;23.312;2023-06-19T00:12:27;10.90;;;9.80;;
80694;SDS011;70059;42.702;23.312;2023-06-19T00:14:52;11.05;;;10.00;;
80694;SDS011;70059;42.702;23.312;2023-06-19T00:17:18;11.60;;;9.15;;
80694;SDS011;70059;42.702;23.312;2023-06-19T00:19:44;10.18;;;9.25;;
80694;SDS011;70059;42.702;23.312;2023-06-19T00:22:09;10.25;;;9.35;;
80694;SDS011;70059;42.702;23.312;2023-06-19T00:24:35;11.25;;;9.63;;
80694;SDS011;70059;42.702;23.312;2023-06-19T00:27:01;10.32;;;9.30;;
80694;SDS011;70059;42.702;23.312;2023-06-19T00:29:28;10.38;;;9.52;;
80694;SDS011;70059;42.702;23.312;2023-06-19T00:31:54;10.70;;;9.57;;
80694;SDS011;70059;42.702;23.312;2023-06-19T00:34:20;10.48;;;9.40;;
80694;SDS011;70059;42.702;23.312;2023-06-19T00:36:45;10.25;;;9.35;;
80694;SDS011;70059;42.702;23.312;2023-06-19T00:39:11;10.75;;;9.68;;
80694;SDS011;70059;42.702;23.312;2023-06-19T00:41:37;9.93;;;9.02;;
80694;SDS011;70059;42.702;23.312;2023-06-19T00:44:04;11.23;;;8.98;;
80694;SDS011;70059;42.702;23.312;2023-06-19T00:46:30;9.68;;;8.77;;
80694;SDS011;70059;42.702;23.312;2023-06-19T00:48:56;10.65;;;9.57;;
80694;SDS011;70059;42.702;23.312;2023-06-19T00:51:22;10.20;;;9.30;;
80694;SDS011;70059;42.702;23.312;2023-06-19T00:53:48;10.38;;;9.38;;
80694;SDS011;70059;42.702;23.312;2023-06-19T00:56:14;10.50;;;9.50;;
80694;SDS011;70059;42.702;23.312;2023-06-19T00:58:43;10.75;;;9.75;;
80694;SDS011;70059;42.702;23.312;2023-06-19T01:01:09;10.88;;;9.88;;
80694;SDS011;70059;42.702;23.312;2023-06-19T01:03:35;11.40;;;10.23;;
80694;SDS011;70059;42.702;23.312;2023-06-19T01:06:01;11.68;;;10.68;;
80694;SDS011;70059;42.702;23.312;2023-06-19T01:08:41;9.43;;;8.63;;
80694;SDS011;70059;42.702;23.312;2023-06-19T01:11:13;8.05;;;7.18;;
80694;SDS011;70059;42.702;23.312;2023-06-19T01:13:57;10.80;;;9.80;;
80694;SDS011;70059;42.702;23.312;2023-06-19T01:16:25;8.07;;;6.35;;
80694;SDS011;70059;42.702;23.312;2023-06-19T01:18:52;8.35;;;6.00;;
80694;SDS011;70059;42.702;23.312;2023-06-19T01:21:19;9.38;;;7.60;;
80694;SDS011;70059;42.702;23.312;2023-06-19T01:23:45;7.57;;;6.35;;
80694;SDS011;70059;42.702;23.312;2023-06-19T01:26:12;12.27;;;11.27;;
80694;SDS011;70059;42.702;23.312;2023-06-19T01:28:39;13.65;;;12.45;;
80694;SDS011;70059;42.702;23.312;2023-06-19T01:31:09;13.68;;;12.48;;
80694;SDS011;70059;42.702;23.312;2023-06-19T01:33:38;13.52;;;12.52;;
80694;SDS011;70059;42.702;23.312;2023-06-19T01:36:05;14.18;;;12.98;;
80694;SDS011;70059;42.702;23.312;2023-06-19T01:38:32;14.35;;;13.05;;
80694;SDS011;70059;42.702;23.312;2023-06-19T01:40:59;14.45;;;13.25;;
80694;SDS011;70059;42.702;23.312;2023-06-19T01:43:29;13.27;;;12.10;;
80694;SDS011;70059;42.702;23.312;2023-06-19T01:45:57;11.32;;;10.25;;
80694;SDS011;70059;42.702;23.312;2023-06-19T01:48:23;13.48;;;12.32;;
80694;SDS011;70059;42.702;23.312;2023-06-19T01:50:50;13.82;;;12.82;;
80694;SDS011;70059;42.702;23.312;2023-06-19T01:53:16;14.02;;;12.88;;
80694;SDS011;70059;42.702;23.312;2023-06-19T01:55:42;14.20;;;13.10;;
80694;SDS011;70059;42.702;23.312;2023-06-19T01:58:08;14.18;;;12.98;;
80694;SDS011;70059;42.702;23.312;2023-06-19T02:00:33;14.63;;;13.18;;
80694;SDS011;70059;42.702;23.312;2023-06-19T02:03:03;14.43;;;13.13;;
80694;SDS011;70059;42.702;23.312;2023-06-19T02:05:32;14.13;;;12.82;;
80694;SDS011;70059;42.702;23.312;2023-06-19T02:07:59;14.30;;;13.10;;
80694;SDS011;70059;42.702;23.312;2023-06-19T02:10:25;14.32;;;13.02;;
80694;SDS011;70059;42.702;23.312;2023-06-19T02:12:50;14.52;;;13.23;;
80694;SDS011;70059;42.702;23.312;2023-06-19T02:15:16;14.18;;;12.77;;
80694;SDS011;70059;42.702;23.312;2023-06-19T02:17:42;15.02;;;13.27;;
80694;SDS011;70059;42.702;23.312;2023-06-19T02:20:08;13.75;;;12.65;;
80694;SDS011;70059;42.702;23.312;2023-06-19T02:22:37;7.78;;;6.78;;
80694;SDS011;70059;42.702;23.312;2023-06-19T02:25:04;10.02;;;7.70;;
80694;SDS011;70059;42.702;23.312;2023-06-19T02:27:30;8.32;;;7.07;;
80694;SDS011;70059;42.702;23.312;2023-06-19T02:29:56;8.65;;;7.70;;
80694;SDS011;70059;42.702;23.312;2023-06-19T02:32:21;9.85;;;7.78;;
80694;SDS011;70059;42.702;23.312;2023-06-19T02:34:47;8.23;;;7.15;;
80694;SDS011;70059;42.702;23.312;2023-06-19T02:37:12;8.63;;;7.18;;
80694;SDS011;70059;42.702;23.312;2023-06-19T02:39:38;10.38;;;7.50;;
80694;SDS011;70059;42.702;23.312;2023-06-19T02:42:04;19.42;;;7.65;;
80694;SDS011;70059;42.702;23.312;2023-06-19T02:44:31;8.82;;;7.20;;
80694;SDS011;70059;42.702;23.312;2023-06-19T02:46:56;9.95;;;7.47;;
80694;SDS011;70059;42.702;23.312;2023-06-19T02:49:22;10.65;;;9.55;;
80694;SDS011;70059;42.702;23.312;2023-06-19T02:51:48;9.93;;;8.35;;
80694;SDS011;70059;42.702;23.312;2023-06-19T02:54:13;10.52;;;9.35;;
80694;SDS011;70059;42.702;23.312;2023-06-19T02:56:39;10.82;;;9.73;;
80694;SDS011;70059;42.702;23.312;2023-06-19T02:59:05;11.35;;;9.57;;
80694;SDS011;70059;42.702;23.312;2023-06-19T03:01:30;10.85;;;9.75;;
80694;SDS011;70059;42.702;23.312;2023-06-19T03:48:28;12.20;;;11.10;;
80694;SDS011;70059;42.702;23.312;2023-06-19T03:50:54;13.23;;;11.13;;
80694;SDS011;70059;42.702;23.312;2023-06-19T03:53:20;13.07;;;11.80;;
80694;SDS011;70059;42.702;23.312;2023-06-19T03:55:46;12.90;;;11.52;;
80694;SDS011;70059;42.702;23.312;2023-06-19T03:58:12;12.55;;;11.30;;
80694;SDS011;70059;42.702;23.312;2023-06-19T04:00:37;13.18;;;11.80;;
80694;SDS011;70059;42.702;23.312;2023-06-19T04:03:06;13.50;;;12.10;;
80694;SDS011;70059;42.702;23.312;2023-06-19T04:05:34;13.50;;;12.20;;
80694;SDS011;70059;42.702;23.312;2023-06-19T04:08:00;12.57;;;11.23;;
80694;SDS011;70059;42.702;23.312;2023-06-19T04:10:27;13.57;;;12.23;;
80694;SDS011;70059;42.702;23.312;2023-06-19T04:12:54;14.60;;;12.32;;
80694;SDS011;70059;42.702;23.312;2023-06-19T04:15:21;13.02;;;11.85;;
80694;SDS011;70059;42.702;23.312;2023-06-19T04:17:52;14.13;;;11.35;;
80694;SDS011;70059;42.702;23.312;2023-06-19T04:20:30;13.38;;;11.98;;
80694;SDS011;70059;42.702;23.312;2023-06-19T04:23:11;14.50;;;12.15;;
80694;SDS011;70059;42.702;23.312;2023-06-19T04:25:45;14.23;;;11.73;;
80694;SDS011;70059;42.702;23.312;2023-06-19T04:28:25;12.82;;;11.63;;
80694;SDS011;70059;42.702;23.312;2023-06-19T04:31:02;13.13;;;11.05;;
80694;SDS011;70059;42.702;23.312;2023-06-19T04:33:31;15.75;;;11.85;;
80694;SDS011;70059;42.702;23.312;2023-06-19T04:36:01;20.23;;;12.87;;
80694;SDS011;70059;42.702;23.312;2023-06-19T04:38:28;13.32;;;11.98;;
80694;SDS011;70059;42.702;23.312;2023-06-19T04:40:57;14.18;;;11.88;;
80694;SDS011;70059;42.702;23.312;2023-06-19T04:43:47;14.75;;;12.45;;
80694;SDS011;70059;42.702;23.312;2023-06-19T04:46:19;13.77;;;12.27;;
80694;SDS011;70059;42.702;23.312;2023-06-19T04:48:49;14.40;;;12.18;;
80694;SDS011;70059;42.702;23.312;2023-06-19T04:51:20;13.82;;;12.43;;
80694;SDS011;70059;42.702;23.312;2023-06-19T04:54:21;15.98;;;12.38;;
80694;SDS011;70059;42.702;23.312;2023-06-19T04:56:59;14.25;;;12.85;;
80694;SDS011;70059;42.702;23.312;2023-06-19T04:59:25;15.27;;;13.88;;
80694;SDS011;70059;42.702;23.312;2023-06-19T05:01:51;16.58;;;13.73;;
80694;SDS011;70059;42.702;23.312;2023-06-19T05:04:35;15.30;;;13.80;;
80694;SDS011;70059;42.702;23.312;2023-06-19T05:07:01;14.55;;;13.25;;
80694;SDS011;70059;42.702;23.312;2023-06-19T05:10:12;15.77;;;14.35;;
80694;SDS011;70059;42.702;23.312;2023-06-19T05:12:41;14.77;;;13.27;;
80694;SDS011;70059;42.702;23.312;2023-06-19T05:15:09;15.50;;;13.95;;
80694;SDS011;70059;42.702;23.312;2023-06-19T05:17:38;14.02;;;12.68;;
80694;SDS011;70059;42.702;23.312;2023-06-19T06:03:36;14.57;;;13.15;;
80694;SDS011;70059;42.702;23.312;2023-06-19T06:06:16;15.13;;;13.63;;
80694;SDS011;70059;42.702;23.312;2023-06-19T06:08:42;13.98;;;12.68;;
80694;SDS011;70059;42.702;23.312;2023-06-19T06:11:07;13.98;;;12.80;;
80694;SDS011;70059;42.702;23.312;2023-06-19T06:13:33;14.27;;;13.18;;
80694;SDS011;70059;42.702;23.312;2023-06-19T06:18:37;13.60;;;12.50;;
80694;SDS011;70059;42.702;23.312;2023-06-19T06:21:03;14.75;;;13.50;;
80694;SDS011;70059;42.702;23.312;2023-06-19T06:23:29;14.68;;;13.52;;
80694;SDS011;70059;42.702;23.312;2023-06-19T06:25:55;14.50;;;13.20;;
80694;SDS011;70059;42.702;23.312;2023-06-19T06:28:27;18.65;;;15.27;;
80694;SDS011;70059;42.702;23.312;2023-06-19T06:30:56;15.35;;;13.90;;
80694;SDS011;70059;42.702;23.312;2023-06-19T06:33:22;13.93;;;12.95;;
80694;SDS011;70059;42.702;23.312;2023-06-19T06:35:48;14.40;;;13.30;;
80694;SDS011;70059;42.702;23.312;2023-06-19T06:38:13;16.30;;;14.77;;
80694;SDS011;70059;42.702;23.312;2023-06-19T06:40:39;16.65;;;15.15;;
80694;SDS011;70059;42.702;23.312;2023-06-19T06:43:06;17.73;;;16.00;;
80694;SDS011;70059;42.702;23.312;2023-06-19T06:45:32;17.27;;;15.77;;
80694;SDS011;70059;42.702;23.312;2023-06-19T06:48:04;15.75;;;14.65;;
80694;SDS011;70059;42.702;23.312;2023-06-19T06:50:32;15.75;;;14.60;;
80694;SDS011;70059;42.702;23.312;2023-06-19T06:52:57;16.10;;;14.50;;
80694;SDS011;70059;42.702;23.312;2023-06-19T06:55:25;16.38;;;14.88;;
80694;SDS011;70059;42.702;23.312;2023-06-19T06:57:51;15.38;;;13.88;;
80694;SDS011;70059;42.702;23.312;2023-06-19T07:00:17;15.50;;;14.07;;
80694;SDS011;70059;42.702;23.312;2023-06-19T07:02:43;16.05;;;14.68;;
80694;SDS011;70059;42.702;23.312;2023-06-19T07:05:11;15.10;;;14.00;;
80694;SDS011;70059;42.702;23.312;2023-06-19T07:07:37;15.65;;;14.32;;
80694;SDS011;70059;42.702;23.312;2023-06-19T07:13:58;16.70;;;15.32;;
80694;SDS011;70059;42.702;23.312;2023-06-19T07:16:24;15.43;;;14.25;;
80694;SDS011;70059;42.702;23.312;2023-06-19T07:18:50;16.30;;;14.95;;
80694;SDS011;70059;42.702;23.312;2023-06-19T07:21:15;15.40;;;14.18;;
80694;SDS011;70059;42.702;23.312;2023-06-19T07:23:41;16.15;;;14.95;;
80694;SDS011;70059;42.702;23.312;2023-06-19T07:26:10;15.50;;;14.40;;
80694;SDS011;70059;42.702;23.312;2023-06-19T07:28:36;17.23;;;15.55;;
80694;SDS011;70059;42.702;23.312;2023-06-19T07:31:02;16.10;;;14.80;;
80694;SDS011;70059;42.702;23.312;2023-06-19T07:33:28;15.32;;;14.10;;
80694;SDS011;70059;42.702;23.312;2023-06-19T07:39:18;15.52;;;14.30;;
80694;SDS011;70059;42.702;23.312;2023-06-19T07:41:44;15.40;;;14.07;;
80694;SDS011;70059;42.702;23.312;2023-06-19T07:44:11;16.05;;;14.82;;
80694;SDS011;70059;42.702;23.312;2023-06-19T07:46:42;15.25;;;14.05;;
80694;SDS011;70059;42.702;23.312;2023-06-19T07:49:08;16.58;;;14.82;;
80694;SDS011;70059;42.702;23.312;2023-06-19T07:51:34;15.38;;;14.05;;
80694;SDS011;70059;42.702;23.312;2023-06-19T07:53:59;15.20;;;14.10;;
80694;SDS011;70059;42.702;23.312;2023-06-19T07:56:25;16.40;;;15.30;;
80694;SDS011;70059;42.702;23.312;2023-06-19T07:58:51;15.73;;;14.52;;
80694;SDS011;70059;42.702;23.312;2023-06-19T08:01:17;16.30;;;15.23;;
80694;SDS011;70059;42.702;23.312;2023-06-19T08:03:43;16.67;;;15.48;;
80694;SDS011;70059;42.702;23.312;2023-06-19T08:06:09;16.60;;;15.32;;
80694;SDS011;70059;42.702;23.312;2023-06-19T08:08:34;15.50;;;14.45;;
80694;SDS011;70059;42.702;23.312;2023-06-19T08:11:00;16.35;;;15.15;;
80694;SDS011;70059;42.702;23.312;2023-06-19T08:13:33;16.90;;;15.70;;
80694;SDS011;70059;42.702;23.312;2023-06-19T08:16:00;17.02;;;15.60;;
80694;SDS011;70059;42.702;23.312;2023-06-19T08:18:29;16.15;;;14.95;;
80694;SDS011;70059;42.702;23.312;2023-06-19T08:24:19;16.35;;;14.88;;
80694;SDS011;70059;42.702;23.312;2023-06-19T08:26:45;16.77;;;15.57;;
80694;SDS011;70059;42.702;23.312;2023-06-19T08:29:11;15.25;;;14.00;;
80694;SDS011;70059;42.702;23.312;2023-06-19T08:31:36;16.38;;;15.23;;
80694;SDS011;70059;42.702;23.312;2023-06-19T08:34:02;16.75;;;15.48;;
80694;SDS011;70059;42.702;23.312;2023-06-19T08:36:32;15.85;;;14.65;;
80694;SDS011;70059;42.702;23.312;2023-06-19T08:38:58;15.60;;;14.70;;
80694;SDS011;70059;42.702;23.312;2023-06-19T08:41:24;16.90;;;15.75;;
80694;SDS011;70059;42.702;23.312;2023-06-19T08:43:50;15.88;;;14.68;;
80694;SDS011;70059;42.702;23.312;2023-06-19T08:46:16;16.35;;;15.13;;
80694;SDS011;70059;42.702;23.312;2023-06-19T08:48:43;17.15;;;15.85;;
80694;SDS011;70059;42.702;23.312;2023-06-19T08:51:11;16.65;;;15.23;;
80694;SDS011;70059;42.702;23.312;2023-06-19T08:53:43;16.70;;;15.50;;
80694;SDS011;70059;42.702;23.312;2023-06-19T08:56:10;15.82;;;14.73;;
80694;SDS011;70059;42.702;23.312;2023-06-19T08:58:36;16.35;;;15.25;;
80694;SDS011;70059;42.702;23.312;2023-06-19T09:01:03;17.10;;;15.63;;
80694;SDS011;70059;42.702;23.312;2023-06-19T09:03:29;17.33;;;16.23;;
80694;SDS011;70059;42.702;23.312;2023-06-19T09:05:56;18.05;;;16.92;;
80694;SDS011;70059;42.702;23.312;2023-06-19T09:08:25;18.10;;;16.88;;
80694;SDS011;70059;42.702;23.312;2023-06-19T09:10:58;17.85;;;16.65;;
80694;SDS011;70059;42.702;23.312;2023-06-19T09:16:48;17.15;;;16.15;;
80694;SDS011;70059;42.702;23.312;2023-06-19T09:19:19;17.00;;;15.50;;
80694;SDS011;70059;42.702;23.312;2023-06-19T09:21:45;16.98;;;15.85;;
80694;SDS011;70059;42.702;23.312;2023-06-19T09:27:33;9.27;;;5.82;;
80694;SDS011;70059;42.702;23.312;2023-06-19T09:30:00;11.30;;;5.90;;
80694;SDS011;70059;42.702;23.312;2023-06-19T09:32:26;6.32;;;5.30;;
80694;SDS011;70059;42.702;23.312;2023-06-19T09:34:54;7.38;;;5.80;;
80694;SDS011;70059;42.702;23.312;2023-06-19T09:37:24;5.10;;;4.65;;
80694;SDS011;70059;42.702;23.312;2023-06-19T09:39:52;5.68;;;5.18;;
80694;SDS011;70059;42.702;23.312;2023-06-19T09:42:20;9.80;;;5.72;;
80694;SDS011;70059;42.702;23.312;2023-06-19T09:44:51;7.35;;;5.53;;
80694;SDS011;70059;42.702;23.312;2023-06-19T09:47:23;8.00;;;6.30;;
80694;SDS011;70059;42.702;23.312;2023-06-19T10:17:12;6.35;;;5.75;;
80694;SDS011;70059;42.702;23.312;2023-06-19T10:19:48;6.90;;;5.43;;
80694;SDS011;70059;42.702;23.312;2023-06-19T10:22:19;6.72;;;5.70;;
80694;SDS011;70059;42.702;23.312;2023-06-19T10:24:50;8.20;;;6.07;;
80694;SDS011;70059;42.702;23.312;2023-06-19T10:27:22;10.50;;;6.67;;
80694;SDS011;70059;42.702;23.312;2023-06-19T10:29:52;8.27;;;6.75;;
80694;SDS011;70059;42.702;23.312;2023-06-19T10:32:19;11.43;;;6.35;;
80694;SDS011;70059;42.702;23.312;2023-06-19T10:34:47;6.22;;;5.55;;
80694;SDS011;70059;42.702;23.312;2023-06-19T10:37:16;7.65;;;5.38;;
80694;SDS011;70059;42.702;23.312;2023-06-19T10:43:22;8.50;;;6.20;;
80694;SDS011;70059;42.702;23.312;2023-06-19T10:45:50;8.27;;;6.65;;
80694;SDS011;70059;42.702;23.312;2023-06-19T10:48:20;9.23;;;6.10;;
80694;SDS011;70059;42.702;23.312;2023-06-19T10:50:48;8.20;;;5.90;;
80694;SDS011;70059;42.702;23.312;2023-06-19T10:55:59;13.13;;;6.70;;
80694;SDS011;70059;42.702;23.312;2023-06-19T10:58:26;6.72;;;6.07;;
80694;SDS011;70059;42.702;23.312;2023-06-19T11:00:52;7.93;;;6.40;;
80694;SDS011;70059;42.702;23.312;2023-06-19T11:03:19;6.05;;;5.45;;
80694;SDS011;70059;42.702;23.312;2023-06-19T11:05:46;8.05;;;6.18;;
80694;SDS011;70059;42.702;23.312;2023-06-19T11:08:23;9.15;;;6.32;;
80694;SDS011;70059;42.702;23.312;2023-06-19T11:10:49;8.18;;;6.75;;
80694;SDS011;70059;42.702;23.312;2023-06-19T11:13:16;9.02;;;8.13;;
80694;SDS011;70059;42.702;23.312;2023-06-19T11:15:49;10.48;;;7.47;;
80694;SDS011;70059;42.702;23.312;2023-06-19T11:21:37;10.23;;;6.68;;
80694;SDS011;70059;42.702;23.312;2023-06-19T11:27:30;8.93;;;6.60;;
80694;SDS011;70059;42.702;23.312;2023-06-19T11:29:58;14.27;;;7.60;;
80694;SDS011;70059;42.702;23.312;2023-06-19T11:32:32;11.63;;;7.70;;
80694;SDS011;70059;42.702;23.312;2023-06-19T11:35:08;9.68;;;7.95;;
80694;SDS011;70059;42.702;23.312;2023-06-19T11:37:40;11.15;;;10.02;;
80694;SDS011;70059;42.702;23.312;2023-06-19T11:40:07;8.73;;;7.93;;
80694;SDS011;70059;42.702;23.312;2023-06-19T11:42:53;11.77;;;10.23;;
80694;SDS011;70059;42.702;23.312;2023-06-19T11:45:23;10.13;;;9.13;;
80694;SDS011;70059;42.702;23.312;2023-06-19T11:47:49;10.83;;;9.93;;
80694;SDS011;70059;42.702;23.312;2023-06-19T11:50:15;9.68;;;8.80;;
80694;SDS011;70059;42.702;23.312;2023-06-19T11:52:42;13.95;;;9.40;;
80694;SDS011;70059;42.702;23.312;2023-06-19T11:55:09;7.70;;;6.00;;
80694;SDS011;70059;42.702;23.312;2023-06-19T11:57:35;7.45;;;6.68;;
80694;SDS011;70059;42.702;23.312;2023-06-19T12:00:11;7.20;;;6.18;;
80694;SDS011;70059;42.702;23.312;2023-06-19T12:02:43;8.05;;;7.22;;
80694;SDS011;70059;42.702;23.312;2023-06-19T12:05:09;13.68;;;12.25;;
80694;SDS011;70059;42.702;23.312;2023-06-19T12:07:35;13.35;;;12.07;;
80694;SDS011;70059;42.702;23.312;2023-06-19T12:10:04;13.70;;;12.30;;
80694;SDS011;70059;42.702;23.312;2023-06-19T12:12:35;13.98;;;12.65;;
80694;SDS011;70059;42.702;23.312;2023-06-19T12:15:04;9.55;;;8.65;;
80694;SDS011;70059;42.702;23.312;2023-06-19T12:17:30;14.70;;;7.80;;
80694;SDS011;70059;42.702;23.312;2023-06-19T12:20:02;11.82;;;10.40;;
80694;SDS011;70059;42.702;23.312;2023-06-19T12:22:31;10.05;;;9.23;;
80694;SDS011;70059;42.702;23.312;2023-06-19T12:24:58;9.65;;;7.80;;
80694;SDS011;70059;42.702;23.312;2023-06-19T12:27:30;8.35;;;7.10;;
80694;SDS011;70059;42.702;23.312;2023-06-19T12:29:55;8.60;;;7.13;;
80694;SDS011;70059;42.702;23.312;2023-06-19T12:32:21;10.98;;;6.70;;
80694;SDS011;70059;42.702;23.312;2023-06-19T12:34:47;6.93;;;6.15;;
80694;SDS011;70059;42.702;23.312;2023-06-19T12:37:19;9.25;;;6.53;;
80694;SDS011;70059;42.702;23.312;2023-06-19T12:39:55;7.82;;;6.18;;
80694;SDS011;70059;42.702;23.312;2023-06-19T12:42:21;7.95;;;6.55;;
80694;SDS011;70059;42.702;23.312;2023-06-19T12:44:47;10.13;;;7.03;;
80694;SDS011;70059;42.702;23.312;2023-06-19T12:47:13;11.45;;;9.18;;
80694;SDS011;70059;42.702;23.312;2023-06-19T12:49:42;8.25;;;7.35;;
80694;SDS011;70059;42.702;23.312;2023-06-19T12:52:11;11.48;;;7.38;;
80694;SDS011;70059;42.702;23.312;2023-06-19T12:54:37;8.07;;;6.78;;
80694;SDS011;70059;42.702;23.312;2023-06-19T12:57:07;12.43;;;7.03;;
80694;SDS011;70059;42.702;23.312;2023-06-19T12:59:32;7.55;;;6.68;;
80694;SDS011;70059;42.702;23.312;2023-06-19T13:01:58;8.13;;;7.43;;
80694;SDS011;70059;42.702;23.312;2023-06-19T13:04:24;19.08;;;17.10;;
80694;SDS011;70059;42.702;23.312;2023-06-19T13:06:50;9.55;;;8.50;;
80694;SDS011;70059;42.702;23.312;2023-06-19T13:09:15;10.70;;;9.63;;
80694;SDS011;70059;42.702;23.312;2023-06-19T13:11:41;7.55;;;6.60;;
80694;SDS011;70059;42.702;23.312;2023-06-19T13:14:07;9.02;;;6.72;;
80694;SDS011;70059;42.702;23.312;2023-06-19T13:16:33;7.55;;;6.47;;
80694;SDS011;70059;42.702;23.312;2023-06-19T13:18:58;8.20;;;6.35;;
80694;SDS011;70059;42.702;23.312;2023-06-19T13:21:24;9.68;;;6.60;;
80694;SDS011;70059;42.702;23.312;2023-06-19T13:23:49;13.63;;;7.15;;
80694;SDS011;70059;42.702;23.312;2023-06-19T13:26:15;10.85;;;7.00;;
80694;SDS011;70059;42.702;23.312;2023-06-19T13:28:41;9.20;;;5.90;;
80694;SDS011;70059;42.702;23.312;2023-06-19T13:31:08;6.95;;;6.20;;
80694;SDS011;70059;42.702;23.312;2023-06-19T13:33:34;7.45;;;5.72;;
80694;SDS011;70059;42.702;23.312;2023-06-19T13:52:58;8.57;;;6.38;;
80694;SDS011;70059;42.702;23.312;2023-06-19T13:55:27;7.13;;;5.40;;
80694;SDS011;70059;42.702;23.312;2023-06-19T13:57:53;7.18;;;5.85;;
80694;SDS011;70059;42.702;23.312;2023-06-19T14:00:37;7.65;;;6.63;;
80694;SDS011;70059;42.702;23.312;2023-06-19T14:03:24;11.50;;;6.13;;
80694;SDS011;70059;42.702;23.312;2023-06-19T14:05:59;7.15;;;5.72;;
80694;SDS011;70059;42.702;23.312;2023-06-19T14:08:28;6.97;;;6.28;;
80694;SDS011;70059;42.702;23.312;2023-06-19T14:14:23;8.23;;;7.43;;
80694;SDS011;70059;42.702;23.312;2023-06-19T14:17:02;7.25;;;6.22;;
80694;SDS011;70059;42.702;23.312;2023-06-19T14:19:34;13.77;;;12.73;;
80694;SDS011;70059;42.702;23.312;2023-06-19T14:25:40;7.88;;;7.05;;
80694;SDS011;70059;42.702;23.312;2023-06-19T14:28:09;8.18;;;6.13;;
80694;SDS011;70059;42.702;23.312;2023-06-19T14:30:35;9.02;;;6.50;;
80694;SDS011;70059;42.702;23.312;2023-06-19T14:33:07;8.43;;;6.55;;
80694;SDS011;70059;42.702;23.312;2023-06-19T14:35:43;7.70;;;6.32;;
80694;SDS011;70059;42.702;23.312;2023-06-19T14:38:12;11.90;;;10.77;;
80694;SDS011;70059;42.702;23.312;2023-06-19T14:41:02;8.50;;;7.68;;
80694;SDS011;70059;42.702;23.312;2023-06-19T14:43:31;7.70;;;6.15;;
80694;SDS011;70059;42.702;23.312;2023-06-19T14:46:00;7.07;;;5.82;;
80694;SDS011;70059;42.702;23.312;2023-06-19T14:48:26;6.85;;;6.10;;
80694;SDS011;70059;42.702;23.312;2023-06-19T14:50:57;8.80;;;6.30;;
80694;SDS011;70059;42.702;23.312;2023-06-19T14:53:23;10.63;;;6.45;;
80694;SDS011;70059;42.702;23.312;2023-06-19T14:55:49;8.98;;;6.53;;
80694;SDS011;70059;42.702;23.312;2023-06-19T14:58:15;7.07;;;6.38;;
80694;SDS011;70059;42.702;23.312;2023-06-19T15:00:40;7.20;;;6.47;;
80694;SDS011;70059;42.702;23.312;2023-06-19T15:03:07;10.38;;;6.80;;
80694;SDS011;70059;42.702;23.312;2023-06-19T15:05:33;7.43;;;6.55;;
80694;SDS011;70059;42.702;23.312;2023-06-19T15:07:59;9.50;;;7.13;;
80694;SDS011;70059;42.702;23.312;2023-06-19T15:10:26;11.70;;;7.53;;
80694;SDS011;70059;42.702;23.312;2023-06-19T15:12:54;10.05;;;6.80;;
80694;SDS011;70059;42.702;23.312;2023-06-19T15:15:20;7.30;;;6.60;;
80694;SDS011;70059;42.702;23.312;2023-06-19T15:17:46;12.55;;;7.47;;
80694;SDS011;70059;42.702;23.312;2023-06-19T15:20:13;12.45;;;7.82;;
80694;SDS011;70059;42.702;23.312;2023-06-19T15:22:42;8.95;;;6.78;;
80694;SDS011;70059;42.702;23.312;2023-06-19T15:25:08;11.75;;;10.65;;
80694;SDS011;70059;42.702;23.312;2023-06-19T15:27:33;9.75;;;7.20;;
80694;SDS011;70059;42.702;23.312;2023-06-19T15:29:59;9.88;;;8.95;;
80694;SDS011;70059;42.702;23.312;2023-06-19T15:32:25;13.65;;;7.70;;
80694;SDS011;70059;42.702;23.312;2023-06-19T15:34:50;8.80;;;7.78;;
80694;SDS011;70059;42.702;23.312;2023-06-19T15:37:16;15.65;;;14.45;;
80694;SDS011;70059;42.702;23.312;2023-06-19T15:39:42;14.90;;;13.60;;
80694;SDS011;70059;42.702;23.312;2023-06-19T15:42:08;15.43;;;14.23;;
80694;SDS011;70059;42.702;23.312;2023-06-19T15:44:34;14.55;;;13.43;;
80694;SDS011;70059;42.702;23.312;2023-06-19T15:47:01;15.13;;;13.82;;
80694;SDS011;70059;42.702;23.312;2023-06-19T15:49:31;17.48;;;16.17;;
80694;SDS011;70059;42.702;23.312;2023-06-19T15:51:58;19.50;;;17.90;;
80694;SDS011;70059;42.702;23.312;2023-06-19T15:54:24;15.63;;;14.23;;
80694;SDS011;70059;42.702;23.312;2023-06-19T15:56:49;15.25;;;14.02;;
80694;SDS011;70059;42.702;23.312;2023-06-19T15:59:15;16.45;;;14.93;;
80694;SDS011;70059;42.702;23.312;2023-06-19T16:01:42;15.80;;;14.50;;
80694;SDS011;70059;42.702;23.312;2023-06-19T16:04:11;15.63;;;14.32;;
80694;SDS011;70059;42.702;23.312;2023-06-19T16:06:37;14.93;;;13.88;;
80694;SDS011;70059;42.702;23.312;2023-06-19T16:09:04;16.15;;;15.00;;
80694;SDS011;70059;42.702;23.312;2023-06-19T16:11:30;15.32;;;14.27;;
80694;SDS011;70059;42.702;23.312;2023-06-19T16:13:56;16.00;;;14.80;;
80694;SDS011;70059;42.702;23.312;2023-06-19T16:16:22;14.70;;;13.43;;
80694;SDS011;70059;42.702;23.312;2023-06-19T16:18:48;16.27;;;14.88;;
80694;SDS011;70059;42.702;23.312;2023-06-19T16:21:13;14.32;;;13.20;;
80694;SDS011;70059;42.702;23.312;2023-06-19T16:23:41;14.07;;;12.88;;
80694;SDS011;70059;42.702;23.312;2023-06-19T16:26:07;16.23;;;13.82;;
80694;SDS011;70059;42.702;23.312;2023-06-19T16:28:32;14.75;;;13.57;;
80694;SDS011;70059;42.702;23.312;2023-06-19T16:30:58;15.95;;;14.20;;
80694;SDS011;70059;42.702;23.312;2023-06-19T16:33:24;15.30;;;14.07;;
80694;SDS011;70059;42.702;23.312;2023-06-19T16:35:49;15.18;;;13.77;;
80694;SDS011;70059;42.702;23.312;2023-06-19T16:38:15;14.55;;;13.32;;
80694;SDS011;70059;42.702;23.312;2023-06-19T16:40:41;14.57;;;13.27;;
80694;SDS011;70059;42.702;23.312;2023-06-19T16:43:08;15.07;;;13.88;;
80694;SDS011;70059;42.702;23.312;2023-06-19T16:45:34;15.55;;;14.25;;
80694;SDS011;70059;42.702;23.312;2023-06-19T16:48:00;15.95;;;14.68;;
80694;SDS011;70059;42.702;23.312;2023-06-19T16:50:26;17.17;;;15.60;;
80694;SDS011;70059;42.702;23.312;2023-06-19T16:52:51;15.57;;;14.27;;
80694;SDS011;70059;42.702;23.312;2023-06-19T16:55:17;15.52;;;14.27;;
80694;SDS011;70059;42.702;23.312;2023-06-19T16:57:47;15.55;;;14.13;;
80694;SDS011;70059;42.702;23.312;2023-06-19T17:00:15;17.00;;;15.25;;
80694;SDS011;70059;42.702;23.312;2023-06-19T17:02:41;15.48;;;14.18;;
80694;SDS011;70059;42.702;23.312;2023-06-19T17:05:07;16.42;;;14.90;;
80694;SDS011;70059;42.702;23.312;2023-06-19T17:07:33;16.02;;;14.82;;
80694;SDS011;70059;42.702;23.312;2023-06-19T17:09:59;15.68;;;14.40;;
80694;SDS011;70059;42.702;23.312;2023-06-19T17:12:25;16.23;;;15.02;;
80694;SDS011;70059;42.702;23.312;2023-06-19T17:14:50;15.35;;;14.32;;